Time;durP1;ratioP1;P1;durP2;ratioP2;P2;SDS_P1;SDS_P2;PMS_P1;PMS_P2;Temp;Humidity;BMP_temperature;BMP_pressure;BME280_temperature;BME280_humidity;BME280_pressure;Samples;Min_cycle;Max_cycle;Signal;HPM_P1;HPM_P2
2021/03/17 00:00:50;;;;;;;4.13;2.70;;;;;;;2.05;83.31;97151.09;4983693;28;20046;-62
2021/03/17 00:03:16;;;;;;;4.43;2.95;;;;;;;2.05;83.77;97147.56;4993636;28;20038;-62
2021/03/17 00:05:43;;;;;;;5.75;3.22;;;;;;;2.03;83.70;97145.16;5003970;28;20049;-61
2021/03/17 00:08:09;;;;;;;5.20;2.65;;;;;;;1.99;83.16;97148.78;4998571;28;20049;-62
2021/03/17 00:10:41;;;;;;;4.35;2.90;;;;;;;2.15;83.18;97143.88;5003006;28;20049;-61
2021/03/17 00:13:07;;;;;;;4.53;2.95;;;;;;;2.10;83.36;97139.38;5000072;28;20042;-61
2021/03/17 00:15:38;;;;;;;4.43;2.92;;;;;;;2.22;82.91;97141.56;4995619;28;20096;-61
2021/03/17 00:18:08;;;;;;;5.25;3.20;;;;;;;2.04;83.56;97135.19;4979955;28;20053;-63
2021/03/17 00:20:34;;;;;;;4.75;3.40;;;;;;;2.02;83.58;97137.38;4991648;28;20050;-62
2021/03/17 00:22:59;;;;;;;4.88;3.42;;;;;;;2.07;83.33;97135.38;5003533;28;20045;-61
2021/03/17 00:25:30;;;;;;;7.22;3.38;;;;;;;1.97;83.60;97134.78;4998770;28;20502;-62
2021/03/17 00:27:57;;;;;;;5.43;3.05;;;;;;;2.07;83.88;97137.25;5003534;28;20056;-62
2021/03/17 00:30:22;;;;;;;4.88;3.30;;;;;;;2.02;84.41;97132.78;4981443;28;20425;-62
2021/03/17 00:32:48;;;;;;;5.85;3.28;;;;;;;1.96;84.51;97131.25;5003071;28;20081;-62
2021/03/17 00:35:13;;;;;;;6.50;4.03;;;;;;;1.91;84.72;97132.16;4988391;28;20046;-62
2021/03/17 00:37:39;;;;;;;4.93;3.65;;;;;;;1.97;85.22;97127.47;4990992;28;20408;-61
2021/03/17 00:40:05;;;;;;;5.07;3.58;;;;;;;2.02;84.71;97119.25;4991623;28;20038;-61
2021/03/17 00:42:31;;;;;;;5.22;3.65;;;;;;;2.00;84.68;97121.47;5010434;28;20057;-62
2021/03/17 00:44:56;;;;;;;6.95;4.43;;;;;;;2.00;84.09;97121.47;5009351;28;20042;-63
2021/03/17 00:47:22;;;;;;;4.88;4.07;;;;;;;1.89;84.54;97120.88;4973903;28;20920;-63
2021/03/17 00:49:47;;;;;;;5.75;4.25;;;;;;;1.78;85.21;97116.75;4996555;28;20038;-60
2021/03/17 00:52:12;;;;;;;6.63;4.68;;;;;;;1.90;85.30;97113.56;4998385;28;20038;-63
2021/03/17 00:54:38;;;;;;;7.95;4.40;;;;;;;1.96;84.82;97109.63;4988031;28;20048;-62
2021/03/17 00:57:03;;;;;;;4.85;3.90;;;;;;;1.94;84.67;97113.75;4982274;28;20038;-62
2021/03/17 00:59:30;;;;;;;8.68;4.60;;;;;;;2.03;84.44;97112.75;4982975;28;20046;-60
2021/03/17 01:01:56;;;;;;;6.50;3.83;;;;;;;1.89;85.25;97109.25;4986232;28;20045;-63
2021/03/17 01:04:22;;;;;;;7.82;3.88;;;;;;;1.84;85.32;97103.97;4963219;28;20866;-63
2021/03/17 01:06:48;;;;;;;7.13;4.25;;;;;;;1.87;85.20;97101.47;4983777;28;20439;-63
2021/03/17 01:09:14;;;;;;;5.63;3.83;;;;;;;1.84;85.18;97096.66;4979627;28;20034;-59
2021/03/17 01:11:39;;;;;;;8.20;4.40;;;;;;;1.76;85.80;97097.34;4984841;28;20133;-62
2021/03/17 01:14:05;;;;;;;7.53;4.20;;;;;;;1.86;85.90;97091.75;4979442;28;20042;-60
2021/03/17 01:16:30;;;;;;;5.38;3.95;;;;;;;1.90;86.16;97087.34;4983359;28;20608;-62
2021/03/17 01:18:56;;;;;;;7.88;4.53;;;;;;;1.91;85.38;97078.13;4984069;28;20523;-64
2021/03/17 01:21:21;;;;;;;5.75;4.28;;;;;;;1.88;86.16;97081.44;4977192;28;21058;-63
2021/03/17 01:23:47;;;;;;;7.05;4.07;;;;;;;1.86;86.58;97083.63;4981192;28;20102;-63
2021/03/17 01:26:12;;;;;;;8.07;4.50;;;;;;;1.78;86.96;97081.63;4978880;28;20110;-63
2021/03/17 01:28:39;;;;;;;5.85;4.40;;;;;;;1.80;86.95;97079.44;4992802;28;20491;-61
2021/03/17 01:31:05;;;;;;;5.30;4.03;;;;;;;1.86;86.31;97069.34;4979398;28;20043;-63
2021/03/17 01:33:30;;;;;;;6.85;4.97;;;;;;;1.79;86.79;97071.66;4979507;28;20068;-61
2021/03/17 01:35:57;;;;;;;6.03;4.95;;;;;;;1.82;86.54;97074.53;4999276;23;20053;-60
2021/03/17 01:38:24;;;;;;;5.72;4.47;;;;;;;1.89;87.11;97068.72;5007034;28;20053;-60
2021/03/17 01:40:50;;;;;;;5.85;4.28;;;;;;;1.91;86.45;97061.13;5007560;28;20037;-62
2021/03/17 01:43:16;;;;;;;6.63;4.68;;;;;;;1.77;87.38;97057.66;5006296;28;20390;-62
2021/03/17 01:45:43;;;;;;;5.63;4.53;;;;;;;1.74;87.04;97066.34;5007803;28;20049;-59
2021/03/17 01:48:09;;;;;;;7.60;4.97;;;;;;;1.68;87.24;97061.03;5007538;28;20847;-62
2021/03/17 01:50:41;;;;;;;7.03;4.80;;;;;;;1.74;88.40;97055.53;4992328;28;20045;-61
2021/03/17 01:53:15;;;;;;;5.43;4.30;;;;;;;1.79;88.17;97055.44;5025895;28;20068;-61
2021/03/17 01:55:42;;;;;;;6.15;4.43;;;;;;;1.82;88.17;97058.34;5021720;28;20048;-62
2021/03/17 01:58:09;;;;;;;6.00;4.32;;;;;;;1.91;88.47;97055.75;5011619;28;20115;-59
2021/03/17 02:00:35;;;;;;;6.55;4.97;;;;;;;1.90;87.38;97052.22;5020352;28;20136;-59
2021/03/17 02:03:01;;;;;;;6.90;4.43;;;;;;;1.93;87.04;97048.13;5015633;28;20394;-61
2021/03/17 02:05:31;;;;;;;7.63;4.85;;;;;;;1.92;87.43;97038.41;5010577;28;20049;-61
2021/03/17 02:08:02;;;;;;;5.70;4.03;;;;;;;1.90;87.57;97037.91;5010514;28;20060;-59
2021/03/17 02:10:28;;;;;;;6.50;4.78;;;;;;;1.91;87.40;97036.81;5004713;28;20049;-58
2021/03/17 02:13:04;;;;;;;5.03;4.00;;;;;;;1.98;87.16;97045.31;5019218;28;20049;-61
2021/03/17 02:15:45;;;;;;;6.32;4.20;;;;;;;1.97;87.32;97035.59;4979245;28;20058;-60
2021/03/17 02:18:26;;;;;;;7.35;4.65;;;;;;;1.90;87.36;97038.72;4998466;28;20490;-58
2021/03/17 02:21:13;;;;;;;6.20;4.55;;;;;;;1.94;87.48;97046.22;5006062;28;20064;-61
2021/03/17 02:23:57;;;;;;;6.32;4.43;;;;;;;1.97;87.67;97041.00;5020962;28;20044;-62
2021/03/17 02:26:43;;;;;;;7.38;5.00;;;;;;;1.97;87.97;97042.91;5007228;28;20053;-60
2021/03/17 02:29:35;;;;;;;6.18;4.53;;;;;;;2.01;87.72;97049.31;5000915;28;20046;-61
2021/03/17 02:32:32;;;;;;;5.65;4.32;;;;;;;1.95;87.54;97042.44;5011276;28;20033;-62
2021/03/17 02:35:03;;;;;;;6.45;4.57;;;;;;;1.99;87.94;97036.09;5004949;28;20045;-62
2021/03/17 02:37:31;;;;;;;5.68;4.25;;;;;;;2.01;87.43;97039.28;5008105;28;20046;-62
2021/03/17 02:40:18;;;;;;;6.32;3.90;;;;;;;1.96;87.09;97042.09;5001313;28;20077;-60
2021/03/17 02:42:49;;;;;;;5.88;3.95;;;;;;;1.87;87.07;97035.81;4997690;28;20041;-59
2021/03/17 02:45:25;;;;;;;6.25;3.78;;;;;;;1.96;87.60;97035.91;5007109;28;20118;-61
2021/03/17 02:48:02;;;;;;;6.00;3.92;;;;;;;2.15;86.12;97038.50;5003355;28;20033;-60
2021/03/17 02:50:29;;;;;;;6.25;3.50;;;;;;;2.26;85.94;97037.94;5000858;28;20064;-60
2021/03/17 02:52:57;;;;;;;5.93;3.50;;;;;;;2.31;85.78;97030.84;5012198;28;20034;-60
2021/03/17 02:55:27;;;;;;;4.15;3.47;;;;;;;2.35;85.37;97023.72;5006202;28;20049;-60
2021/03/17 02:57:55;;;;;;;4.35;3.72;;;;;;;2.42;84.76;97026.81;5011606;28;20050;-61
2021/03/17 03:00:22;;;;;;;4.30;3.22;;;;;;;2.26;85.63;97027.13;5006060;28;20029;-60
2021/03/17 03:02:51;;;;;;;4.10;3.17;;;;;;;2.18;86.36;97022.47;5003128;28;20038;-59
2021/03/17 03:05:18;;;;;;;7.15;3.97;;;;;;;2.11;86.41;97030.19;4985109;28;20052;-60
2021/03/17 03:07:48;;;;;;;4.85;3.80;;;;;;;2.06;87.11;97025.69;5019465;28;20103;-62
2021/03/17 03:10:16;;;;;;;4.85;3.80;;;;;;;2.07;87.90;97021.88;5009058;28;20099;-62
2021/03/17 03:12:42;;;;;;;4.65;3.58;;;;;;;2.03;87.05;97026.28;5019832;28;20045;-61
2021/03/17 03:15:10;;;;;;;5.38;3.72;;;;;;;2.07;87.79;97026.47;5004176;28;20057;-62
2021/03/17 03:17:37;;;;;;;5.72;3.78;;;;;;;2.07;87.00;97026.47;5011158;28;20076;-62
2021/03/17 03:20:08;;;;;;;6.60;3.75;;;;;;;2.07;87.37;97027.28;5005100;28;20045;-60
2021/03/17 03:22:34;;;;;;;4.93;3.40;;;;;;;2.15;87.00;97025.78;4991745;28;20486;-62
2021/03/17 03:25:00;;;;;;;4.85;3.70;;;;;;;2.17;87.04;97022.78;5001856;28;20061;-62
2021/03/17 03:27:27;;;;;;;5.22;4.00;;;;;;;2.09;86.91;97027.00;5002923;28;20049;-61
2021/03/17 03:29:55;;;;;;;7.25;3.30;;;;;;;2.07;87.78;97021.06;5010733;28;20707;-62
2021/03/17 03:32:20;;;;;;;6.15;3.55;;;;;;;2.12;88.21;97014.78;5014922;28;20037;-60
2021/03/17 03:34:46;;;;;;;5.40;3.70;;;;;;;2.12;87.41;97022.88;5003189;28;20551;-62
2021/03/17 03:37:14;;;;;;;4.82;3.33;;;;;;;2.16;87.08;97021.16;5025605;28;20048;-60
2021/03/17 03:39:39;;;;;;;4.93;3.60;;;;;;;2.13;87.42;97022.56;5030548;28;20042;-59
2021/03/17 03:42:05;;;;;;;4.53;3.17;;;;;;;2.15;87.46;97027.69;5003945;28;20064;-59
2021/03/17 03:44:32;;;;;;;4.88;3.78;;;;;;;2.21;87.62;97026.47;5026229;28;20050;-61
2021/03/17 03:46:57;;;;;;;4.28;3.10;;;;;;;2.31;86.65;97030.84;5027412;28;20049;-60
2021/03/17 03:49:23;;;;;;;4.82;3.67;;;;;;;2.37;86.55;97025.00;5021110;28;20622;-60
2021/03/17 03:51:55;;;;;;;5.65;3.90;;;;;;;2.18;86.01;97024.34;5021831;28;20080;-60
2021/03/17 03:54:23;;;;;;;5.28;3.80;;;;;;;2.10;86.48;97023.97;5007201;28;20045;-59
2021/03/17 03:57:03;;;;;;;5.25;3.90;;;;;;;2.17;87.18;97022.78;5020746;28;20393;-60
2021/03/17 03:59:35;;;;;;;5.38;3.63;;;;;;;2.30;86.83;97035.44;5006145;28;20546;-59
2021/03/17 04:02:03;;;;;;;5.40;3.75;;;;;;;2.39;86.52;97025.50;5011114;28;20227;-59
2021/03/17 04:04:32;;;;;;;7.43;3.80;;;;;;;2.31;86.42;97026.25;5015846;28;20060;-59
2021/03/17 04:07:02;;;;;;;6.43;4.10;;;;;;;2.37;86.58;97030.41;5010308;28;20085;-59
2021/03/17 04:09:35;;;;;;;18.60;8.48;;;;;;;2.40;85.66;97031.72;5004175;28;20052;-61
2021/03/17 04:12:03;;;;;;;13.80;6.43;;;;;;;2.33;85.83;97034.03;5009862;28;20060;-60
2021/03/17 04:14:32;;;;;;;6.65;4.05;;;;;;;2.33;86.05;97034.84;4994509;28;20069;-62
2021/03/17 04:17:06;;;;;;;6.18;3.75;;;;;;;2.41;86.02;97038.72;5008406;28;20042;-60
2021/03/17 04:19:35;;;;;;;4.30;3.65;;;;;;;2.32;86.05;97038.63;4996604;28;20045;-61
2021/03/17 04:22:02;;;;;;;5.50;3.92;;;;;;;2.33;86.06;97036.75;5019213;28;20057;-61
2021/03/17 04:24:29;;;;;;;5.40;3.55;;;;;;;2.32;86.06;97037.84;4993840;28;20526;-60
2021/03/17 04:26:57;;;;;;;5.65;3.97;;;;;;;2.29;86.28;97034.66;5006760;28;20060;-62
2021/03/17 04:29:24;;;;;;;6.43;4.03;;;;;;;2.43;86.39;97042.72;5008556;28;20093;-61
2021/03/17 04:31:50;;;;;;;4.38;3.47;;;;;;;2.45;85.62;97040.50;5019737;28;20052;-61
2021/03/17 04:34:18;;;;;;;7.22;4.15;;;;;;;2.47;86.56;97042.91;5007539;28;20046;-61
2021/03/17 04:36:45;;;;;;;5.80;4.40;;;;;;;2.44;86.18;97044.31;5009574;28;20057;-60
2021/03/17 04:39:10;;;;;;;5.30;3.88;;;;;;;2.48;86.84;97039.09;5011136;28;20045;-62
2021/03/17 04:41:37;;;;;;;5.22;3.90;;;;;;;2.49;86.68;97038.00;5015324;28;20046;-60
2021/03/17 04:44:02;;;;;;;5.68;4.10;;;;;;;2.44;86.30;97038.91;5012139;28;20061;-61
2021/03/17 04:46:28;;;;;;;5.05;3.90;;;;;;;2.42;85.95;97041.13;5026729;28;20057;-60
2021/03/17 04:48:54;;;;;;;5.55;4.05;;;;;;;2.30;86.56;97051.66;5015730;28;20034;-61
2021/03/17 04:51:21;;;;;;;6.13;4.03;;;;;;;2.28;87.18;97043.06;5008340;28;20042;-60
2021/03/17 04:53:46;;;;;;;5.93;4.22;;;;;;;2.16;87.51;97040.06;5012593;28;20045;-62
2021/03/17 04:56:15;;;;;;;6.55;4.30;;;;;;;2.28;87.42;97045.75;4998884;28;20127;-61
2021/03/17 04:58:41;;;;;;;5.68;4.20;;;;;;;2.27;87.35;97049.59;5008295;28;20109;-61
2021/03/17 05:01:11;;;;;;;5.50;4.00;;;;;;;2.24;87.06;97036.66;5010951;28;20100;-60
2021/03/17 05:03:39;;;;;;;6.32;3.92;;;;;;;2.29;86.75;97042.75;5027935;28;20045;-61
2021/03/17 05:06:05;;;;;;;4.90;3.50;;;;;;;2.38;85.91;97042.03;5009806;28;20088;-59
2021/03/17 05:08:32;;;;;;;4.72;3.50;;;;;;;2.24;86.82;97037.47;5023782;28;20044;-62
2021/03/17 05:10:58;;;;;;;6.70;4.03;;;;;;;2.17;86.78;97036.28;5024802;28;20080;-62
2021/03/17 05:13:25;;;;;;;6.72;4.50;;;;;;;2.01;88.26;97044.69;5011506;28;20586;-60
2021/03/17 05:15:51;;;;;;;6.53;4.20;;;;;;;2.15;87.71;97036.56;5012049;28;20073;-60
2021/03/17 05:18:18;;;;;;;6.22;4.13;;;;;;;2.02;86.90;97029.31;4998595;28;20080;-60
2021/03/17 05:20:47;;;;;;;7.28;4.65;;;;;;;2.03;87.45;97039.78;4997293;28;20447;-60
2021/03/17 05:23:14;;;;;;;10.27;5.47;;;;;;;1.99;88.06;97035.31;4999135;28;20482;-59
2021/03/17 05:25:41;;;;;;;13.27;6.65;;;;;;;2.03;88.17;97041.69;5002416;28;20100;-60
2021/03/17 05:28:06;;;;;;;9.00;4.95;;;;;;;2.03;87.96;97042.50;4999171;28;20453;-60
2021/03/17 05:30:34;;;;;;;6.72;4.95;;;;;;;2.08;87.89;97041.59;5018693;28;20069;-60
2021/03/17 05:33:01;;;;;;;6.57;4.70;;;;;;;2.10;88.13;97040.19;5011772;28;20064;-60
2021/03/17 05:35:27;;;;;;;7.13;5.03;;;;;;;2.02;88.49;97040.91;5000982;28;20045;-62
2021/03/17 05:37:52;;;;;;;7.68;5.05;;;;;;;2.04;88.32;97044.09;5014825;28;20068;-59
2021/03/17 05:40:18;;;;;;;14.80;9.25;;;;;;;1.94;87.81;97046.22;5018077;28;20468;-62
2021/03/17 05:42:45;;;;;;;13.82;8.20;;;;;;;1.97;88.34;97045.63;5015755;28;20103;-61
2021/03/17 05:45:14;;;;;;;9.35;5.10;;;;;;;2.00;88.08;97048.53;5004703;28;20041;-61
2021/03/17 05:47:46;;;;;;;8.93;6.00;;;;;;;1.98;88.40;97053.44;5003841;28;20049;-62
2021/03/17 05:50:15;;;;;;;8.70;5.20;;;;;;;2.06;88.61;97060.03;5005790;28;20586;-61
2021/03/17 05:52:41;;;;;;;9.10;5.78;;;;;;;1.90;88.26;97070.34;5021353;28;20116;-61
2021/03/17 05:55:09;;;;;;;8.85;5.20;;;;;;;1.92;88.69;97065.44;5007712;28;20073;-61
2021/03/17 05:57:36;;;;;;;7.30;5.25;;;;;;;1.94;88.34;97059.72;5006527;28;20041;-60
2021/03/17 06:00:07;;;;;;;8.35;5.97;;;;;;;1.87;89.48;97060.94;5018459;28;20394;-62
2021/03/17 06:02:35;;;;;;;10.20;5.85;;;;;;;1.98;88.98;97056.13;5015909;28;20103;-61
2021/03/17 06:05:05;;;;;;;8.88;5.65;;;;;;;1.98;88.92;97053.44;5020193;28;20046;-61
2021/03/17 06:07:37;;;;;;;9.07;5.88;;;;;;;2.15;88.34;97049.31;5027576;28;20079;-61
2021/03/17 06:10:04;;;;;;;8.82;5.78;;;;;;;2.04;87.40;97044.09;5026588;28;20064;-61
2021/03/17 06:12:34;;;;;;;11.10;6.60;;;;;;;1.77;88.30;97041.44;5010419;28;20053;-60
2021/03/17 06:15:01;;;;;;;11.65;6.80;;;;;;;1.56;90.38;97063.41;5010404;28;20544;-62
2021/03/17 06:17:30;;;;;;;13.30;7.13;;;;;;;1.81;90.57;97075.63;5016993;28;20136;-60
2021/03/17 06:20:02;;;;;;;11.68;6.88;;;;;;;1.97;89.29;97080.75;5016888;28;20605;-60
2021/03/17 06:22:28;;;;;;;13.63;7.18;;;;;;;2.00;90.07;97088.22;4994105;28;20042;-59
2021/03/17 06:24:55;;;;;;;11.90;7.13;;;;;;;2.00;89.12;97082.81;5021249;28;20045;-61
2021/03/17 06:27:21;;;;;;;12.77;8.02;;;;;;;2.18;89.35;97100.84;5017704;28;20406;-61
2021/03/17 06:29:47;;;;;;;12.07;6.70;;;;;;;2.28;88.35;97095.19;5014236;28;20049;-61
2021/03/17 06:32:13;;;;;;;11.90;7.05;;;;;;;2.28;88.33;97102.50;5020164;28;20064;-61
2021/03/17 06:34:49;;;;;;;13.52;8.00;;;;;;;2.33;88.37;97107.81;5023317;28;20042;-61
2021/03/17 06:37:15;;;;;;;12.45;7.20;;;;;;;2.32;88.13;97102.72;5015677;28;20045;-62
2021/03/17 06:39:40;;;;;;;11.63;7.22;;;;;;;2.32;88.52;97098.09;5022548;28;20045;-62
2021/03/17 06:42:06;;;;;;;12.82;7.72;;;;;;;2.39;87.99;97103.88;4997138;28;20041;-61
2021/03/17 06:44:32;;;;;;;11.82;6.93;;;;;;;2.48;88.05;97106.69;5022461;28;20053;-62
2021/03/17 06:47:13;;;;;;;13.38;8.20;;;;;;;2.75;87.57;97105.81;5009486;28;20048;-61
2021/03/17 06:49:41;;;;;;;12.50;7.63;;;;;;;2.86;86.12;97112.59;4999881;28;20538;-62
2021/03/17 06:52:29;;;;;;;11.65;6.65;;;;;;;3.01;85.58;97102.53;4995221;28;20041;-61
2021/03/17 06:55:17;;;;;;;12.18;6.88;;;;;;;3.68;84.17;97108.97;5020982;28;20576;-61
2021/03/17 06:57:50;;;;;;;10.00;6.53;;;;;;;4.36;80.45;97101.41;5013054;28;20045;-61
2021/03/17 07:00:35;;;;;;;11.32;6.57;;;;;;;4.92;77.09;97104.31;5007803;28;20037;-61
2021/03/17 07:03:07;;;;;;;9.93;5.72;;;;;;;4.91;78.06;97108.94;5005639;28;20053;-61
2021/03/17 07:05:41;;;;;;;9.45;6.30;;;;;;;4.78;77.53;97109.88;5026979;28;20053;-60
2021/03/17 07:08:30;;;;;;;11.85;6.95;;;;;;;4.68;78.42;97118.34;5028788;28;20076;-60
2021/03/17 07:11:00;;;;;;;9.50;5.72;;;;;;;4.81;76.56;97117.41;5010805;28;20041;-61
2021/03/17 07:13:27;;;;;;;8.73;5.60;;;;;;;4.99;76.94;97123.63;5009999;28;20188;-60
2021/03/17 07:15:55;;;;;;;9.00;5.85;;;;;;;4.93;76.43;97123.00;5022640;28;20038;-62
2021/03/17 07:18:22;;;;;;;9.57;5.82;;;;;;;4.67;77.15;97122.19;4990048;28;20037;-61
2021/03/17 07:21:01;;;;;;;7.95;5.30;;;;;;;4.60;77.45;97125.34;5001793;28;20053;-61
2021/03/17 07:23:42;;;;;;;10.37;6.93;;;;;;;4.42;78.13;97129.94;4999858;28;20143;-60
2021/03/17 07:26:45;;;;;;;12.70;7.22;;;;;;;4.46;78.17;97130.91;5005952;28;20428;-61
2021/03/17 07:29:16;;;;;;;12.07;7.72;;;;;;;4.72;77.49;97127.47;4984700;28;20058;-62
2021/03/17 07:31:50;;;;;;;10.55;7.38;;;;;;;4.87;77.13;97124.25;5009501;28;20038;-62
2021/03/17 07:34:23;;;;;;;12.10;6.55;;;;;;;5.12;77.72;97127.31;5007462;28;20095;-63
2021/03/17 07:36:59;;;;;;;13.10;9.13;;;;;;;5.34;75.15;97127.09;5007082;28;20468;-62
2021/03/17 07:39:28;;;;;;;11.32;6.57;;;;;;;5.27;75.57;97126.00;5015329;28;20539;-63
2021/03/17 07:41:56;;;;;;;11.68;7.32;;;;;;;5.61;74.01;97127.06;5017324;28;20049;-61
2021/03/17 07:44:23;;;;;;;10.35;6.63;;;;;;;6.06;72.29;97127.41;5009403;28;20490;-61
2021/03/17 07:46:50;;;;;;;11.80;7.35;;;;;;;6.48;69.68;97132.16;5005473;28;20084;-63
2021/03/17 07:49:17;;;;;;;11.18;6.95;;;;;;;6.30;71.86;97132.28;5010206;28;20045;-60
2021/03/17 07:51:54;;;;;;;11.40;6.82;;;;;;;6.62;69.03;97127.28;5006355;28;20136;-63
2021/03/17 07:54:31;;;;;;;10.95;6.20;;;;;;;6.32;70.53;97126.53;4989584;28;20042;-62
2021/03/17 07:56:58;;;;;;;9.25;5.85;;;;;;;6.90;69.25;97129.50;5009189;28;20077;-62
2021/03/17 07:59:25;;;;;;;8.57;6.03;;;;;;;7.12;68.43;97124.84;5004739;28;20932;-62
2021/03/17 08:01:55;;;;;;;9.30;5.68;;;;;;;7.51;68.99;97128.16;5008239;28;20053;-63
2021/03/17 08:04:32;;;;;;;8.27;5.05;;;;;;;7.96;65.40;97130.91;5011810;28;20494;-63
2021/03/17 08:07:02;;;;;;;8.35;5.63;;;;;;;8.11;61.18;97128.66;5018845;28;20045;-61
2021/03/17 08:09:27;;;;;;;7.00;5.13;;;;;;;7.60;63.00;97134.34;5025925;28;20041;-61
2021/03/17 08:11:56;;;;;;;7.40;5.18;;;;;;;8.14;63.38;97136.13;4998586;28;20056;-63
2021/03/17 08:14:23;;;;;;;9.40;6.35;;;;;;;7.61;65.45;97142.16;5010858;28;21375;-63
2021/03/17 08:16:48;;;;;;;8.75;5.97;;;;;;;7.62;66.14;97132.88;5011723;28;20056;-61
2021/03/17 08:19:21;;;;;;;8.40;5.80;;;;;;;6.87;68.03;97133.66;5006233;28;20549;-62
2021/03/17 08:21:51;;;;;;;9.40;5.75;;;;;;;6.32;69.38;97127.31;5014381;28;20184;-61
2021/03/17 08:24:38;;;;;;;;;;;;;;;5.97;70.35;97134.03;5011480;28;20041;-60
2021/03/17 08:27:06;;;;;;;15.90;8.90;;;;;;;5.72;72.34;97142.69;5013429;28;19917;-60
2021/03/17 08:29:42;;;;;;;11.02;6.80;;;;;;;4.95;73.15;97142.47;5021342;28;20186;-61
2021/03/17 08:32:08;;;;;;;9.30;6.20;;;;;;;5.51;73.72;97147.22;5009937;28;20096;-62
2021/03/17 08:34:35;;;;;;;9.23;6.38;;;;;;;5.90;71.12;97135.28;5021886;28;20050;-62
2021/03/17 08:37:11;;;;;;;9.32;6.10;;;;;;;6.11;69.59;97148.19;5024009;28;20042;-62
2021/03/17 08:39:36;;;;;;;9.52;6.03;;;;;;;5.96;69.82;97146.00;5018716;28;20041;-60
2021/03/17 08:42:05;;;;;;;10.02;6.53;;;;;;;6.17;69.94;97146.88;5018487;28;20037;-61
2021/03/17 08:44:42;;;;;;;8.77;6.35;;;;;;;5.83;69.72;97145.84;5012811;28;20054;-61
2021/03/17 08:47:21;;;;;;;10.18;6.28;;;;;;;5.59;71.52;97153.78;5012699;28;20418;-61
2021/03/17 08:49:51;;;;;;;8.60;5.90;;;;;;;5.19;73.12;97151.28;5017927;28;20042;-62
2021/03/17 08:52:18;;;;;;;9.52;5.93;;;;;;;4.95;75.16;97153.34;5012565;28;20041;-60
2021/03/17 08:54:48;;;;;;;10.60;6.38;;;;;;;4.56;77.01;97146.91;5017523;28;20566;-62
2021/03/17 08:57:15;;;;;;;10.80;5.95;;;;;;;4.44;77.89;97152.13;5011602;28;20188;-61
2021/03/17 09:00:00;;;;;;;10.70;6.50;;;;;;;4.57;78.32;97153.09;5003361;28;20096;-60
2021/03/17 09:02:25;;;;;;;11.23;6.72;;;;;;;4.74;78.09;97157.78;5015073;28;20042;-63
2021/03/17 09:04:57;;;;;;;9.73;6.13;;;;;;;5.48;75.00;97156.03;5023035;28;20053;-63
2021/03/17 09:07:25;;;;;;;8.70;5.95;;;;;;;5.53;75.47;97150.44;5018688;28;20073;-63
2021/03/17 09:09:51;;;;;;;9.57;4.75;;;;;;;6.27;72.30;97151.97;5023938;28;20492;-63
2021/03/17 09:12:18;;;;;;;11.25;5.47;;;;;;;6.74;70.71;97153.00;5017791;28;20121;-63
2021/03/17 09:14:44;;;;;;;9.80;6.00;;;;;;;7.07;68.86;97139.47;5022451;28;20044;-64
2021/03/17 09:17:14;;;;;;;9.55;6.07;;;;;;;6.97;68.64;97145.28;5017928;28;20046;-64
2021/03/17 09:20:09;;;;;;;9.18;5.70;;;;;;;6.09;72.60;97139.59;5022427;28;20430;-64
2021/03/17 09:22:45;;;;;;;10.50;6.35;;;;;;;5.80;74.15;97137.56;5021853;28;20132;-63
2021/03/17 09:25:19;;;;;;;10.35;5.90;;;;;;;5.35;74.61;97141.50;5017252;28;20041;-64
2021/03/17 09:27:47;;;;;;;11.82;5.47;;;;;;;5.69;73.39;97137.91;5022633;28;20042;-60
2021/03/17 09:30:14;;;;;;;9.52;6.25;;;;;;;5.34;76.87;97140.69;5017272;28;20314;-63
2021/03/17 09:32:40;;;;;;;9.25;6.00;;;;;;;5.41;75.29;97148.34;5022563;28;20045;-63
2021/03/17 09:35:07;;;;;;;11.50;5.63;;;;;;;5.44;75.21;97144.19;5011233;28;20092;-63
2021/03/17 09:37:32;;;;;;;12.73;6.20;;;;;;;5.52;74.35;97143.38;5014740;28;20052;-61
2021/03/17 09:39:58;;;;;;;10.65;5.85;;;;;;;5.30;77.08;97139.75;5022325;28;20033;-64
2021/03/17 09:42:23;;;;;;;10.70;6.47;;;;;;;5.01;77.75;97134.97;5000385;28;20690;-64
2021/03/17 09:44:56;;;;;;;9.80;6.50;;;;;;;4.76;78.28;97134.63;5002511;28;20053;-64
2021/03/17 09:47:29;;;;;;;11.73;6.70;;;;;;;4.37;80.29;97144.44;4997682;28;20388;-64
2021/03/17 09:49:55;;;;;;;9.50;5.90;;;;;;;4.63;77.96;97142.91;5010168;28;20092;-63
2021/03/17 09:52:21;;;;;;;11.13;6.60;;;;;;;4.54;79.36;97142.91;5008223;28;20041;-64
2021/03/17 09:54:46;;;;;;;12.52;7.45;;;;;;;4.34;79.27;97142.38;5035400;28;20390;-62
2021/03/17 09:57:12;;;;;;;11.65;6.93;;;;;;;4.74;77.20;97146.94;5006489;28;20034;-62
2021/03/17 09:59:45;;;;;;;10.52;6.00;;;;;;;4.98;75.41;97143.75;5015503;28;20042;-60
2021/03/17 10:02:25;;;;;;;14.02;6.85;;;;;;;5.46;73.47;97152.84;5007434;28;20169;-63
2021/03/17 10:04:51;;;;;;;;;;;;;;;5.66;71.98;97149.44;5006725;28;20057;-63
2021/03/17 10:07:19;;;;;;;9.95;6.40;;;;;;;5.72;72.39;97137.25;5014870;28;19921;-63
2021/03/17 10:09:46;;;;;;;44.50;7.60;;;;;;;5.90;72.15;97138.00;5013288;28;20041;-62
2021/03/17 10:12:17;;;;;;;12.52;5.40;;;;;;;5.80;74.22;97132.94;4997617;28;20045;-65
2021/03/17 10:14:48;;;;;;;11.70;5.68;;;;;;;5.34;74.02;97132.53;5001429;28;20042;-70
2021/03/17 10:17:15;;;;;;;11.25;5.63;;;;;;;5.57;72.78;97129.63;4996384;28;20073;-64
2021/03/17 10:19:42;;;;;;;9.85;6.07;;;;;;;6.03;72.08;97127.28;5001531;28;20097;-62
2021/03/17 10:22:09;;;;;;;11.15;5.97;;;;;;;6.05;70.81;97125.84;4999716;28;20038;-64
2021/03/17 10:24:43;;;;;;;9.07;5.97;;;;;;;5.91;72.06;97123.28;5011381;28;20046;-62
2021/03/17 10:27:19;;;;;;;11.35;6.57;;;;;;;5.40;75.79;97132.38;5005873;28;20033;-63
2021/03/17 10:29:48;;;;;;;13.38;6.55;;;;;;;5.52;75.70;97125.16;5023130;28;20445;-61
2021/03/17 10:32:17;;;;;;;11.45;6.07;;;;;;;5.68;73.92;97130.88;5008970;28;20105;-64
2021/03/17 10:34:42;;;;;;;12.88;7.88;;;;;;;5.36;77.73;97132.22;5012761;28;20041;-63
2021/03/17 10:37:19;;;;;;;11.82;7.47;;;;;;;5.28;77.31;97136.56;5015388;28;20798;-64
2021/03/17 10:39:45;;;;;;;10.60;7.25;;;;;;;4.95;76.33;97142.47;5021192;28;20127;-63
2021/03/17 10:42:25;;;;;;;11.25;6.63;;;;;;;3.65;79.17;97145.59;5006315;28;20475;-63
2021/03/17 10:45:10;;;;;;;11.95;5.25;;;;;;;1.91;83.31;97136.78;5015256;28;20045;-60
2021/03/17 10:47:37;;;;;;;9.43;5.38;;;;;;;1.80;86.88;97165.06;5023081;28;20140;-64
2021/03/17 10:50:08;;;;;;;11.63;7.47;;;;;;;1.48;86.51;97174.81;5012032;28;20483;-59
2021/03/17 10:52:42;;;;;;;11.13;6.45;;;;;;;1.44;86.08;97171.06;5002051;28;20073;-62
2021/03/17 10:55:24;;;;;;;17.33;10.27;;;;;;;0.78;89.89;97173.72;4997257;28;20550;-61
2021/03/17 10:57:50;;;;;;;12.20;5.72;;;;;;;0.83;88.93;97162.03;4998452;28;20050;-62
2021/03/17 11:00:15;;;;;;;10.40;4.93;;;;;;;1.18;87.90;97179.59;4999676;28;20097;-61
2021/03/17 11:02:42;;;;;;;10.60;6.47;;;;;;;1.41;86.83;97175.19;5015201;28;20049;-63
2021/03/17 11:05:08;;;;;;;8.40;4.65;;;;;;;1.86;85.97;97166.59;5002333;28;20049;-64
2021/03/17 11:08:10;;;;;;;6.53;3.55;;;;;;;2.25;85.47;97167.97;5013121;28;20789;-62
2021/03/17 11:10:54;;;;;;;6.20;2.90;;;;;;;1.82;82.03;97166.38;5024023;28;20038;-63
2021/03/17 11:13:20;;;;;;;4.90;3.03;;;;;;;2.13;82.89;97162.31;5016850;28;20422;-62
2021/03/17 11:15:53;;;;;;;4.97;3.13;;;;;;;2.21;84.13;97167.78;5010761;28;20045;-61
2021/03/17 11:18:21;;;;;;;7.00;3.45;;;;;;;2.31;83.55;97174.09;4988403;28;20042;-62
2021/03/17 11:20:48;;;;;;;5.85;3.55;;;;;;;2.42;82.58;97167.38;5001401;28;20041;-64
2021/03/17 11:23:27;;;;;;;5.93;3.38;;;;;;;2.40;82.40;97170.38;5015728;28;20042;-61
2021/03/17 11:25:55;;;;;;;4.55;2.63;;;;;;;2.36;82.77;97161.28;5020036;28;20038;-62
2021/03/17 11:28:23;;;;;;;6.20;3.13;;;;;;;2.22;82.37;97155.88;5015484;28;20510;-64
2021/03/17 11:30:58;;;;;;;5.40;2.97;;;;;;;2.34;79.83;97149.16;5021827;28;20053;-64
2021/03/17 11:33:24;;;;;;;6.57;2.80;;;;;;;2.58;81.41;97143.53;5007449;28;20052;-63
2021/03/17 11:35:52;;;;;;;42.88;21.67;;;;;;;3.09;79.25;97136.97;5000772;28;20041;-63
2021/03/17 11:38:18;;;;;;;10.85;5.32;;;;;;;3.28;79.19;97133.25;4995282;28;20049;-64
2021/03/17 11:40:44;;;;;;;8.45;3.10;;;;;;;3.29;77.56;97130.25;5001081;28;20518;-63
2021/03/17 11:43:14;;;;;;;13.82;5.85;;;;;;;3.27;76.75;97131.69;4982517;28;20046;-64
2021/03/17 11:45:41;;;;;;;9.23;3.95;;;;;;;3.00;78.25;97131.47;5006419;28;20042;-64
2021/03/17 11:48:07;;;;;;;5.97;3.20;;;;;;;3.41;78.42;97127.00;4997975;28;20038;-62
2021/03/17 11:50:37;;;;;;;9.23;4.00;;;;;;;4.36;74.50;97132.00;5004617;28;20108;-64